Time;durP1;ratioP1;P1;durP2;ratioP2;P2;SDS_P1;SDS_P2;PMS_P1;PMS_P2;Temp;Humidity;BMP_temperature;BMP_pressure;BME280_temperature;BME280_humidity;BME280_pressure;Samples;Min_cycle;Max_cycle;Signal;HPM_P1;HPM_P2
2021/05/17 00:00:51;;;;;;;2.20;1.75;;;16.50;99.90;;;;;;5093648;28;20031;-71
2021/05/17 00:03:18;;;;;;;3.95;1.90;;;16.40;99.90;;;;;;5093305;28;20016;-71
2021/05/17 00:05:45;;;;;;;2.65;1.75;;;16.40;99.90;;;;;;5093458;28;20107;-70
2021/05/17 00:08:12;;;;;;;2.03;1.80;;;16.30;99.90;;;;;;5092134;28;20039;-70
2021/05/17 00:10:38;;;;;;;2.28;1.95;;;16.30;99.90;;;;;;5093497;28;20016;-70
2021/05/17 00:13:04;;;;;;;3.13;2.42;;;16.30;99.90;;;;;;5092938;28;20044;-72
2021/05/17 00:15:31;;;;;;;6.15;3.22;;;16.30;99.90;;;;;;5093422;28;20031;-71
2021/05/17 00:17:57;;;;;;;7.10;3.63;;;16.30;99.90;;;;;;5093383;28;20026;-72
2021/05/17 00:20:27;;;;;;;11.52;3.88;;;16.30;99.90;;;;;;5092038;28;20035;-71
2021/05/17 00:22:53;;;;;;;7.63;4.63;;;16.30;99.90;;;;;;5093414;28;20487;-71
2021/05/17 00:25:23;;;;;;;11.85;4.80;;;16.20;99.90;;;;;;5091911;28;20032;-70
2021/05/17 00:27:51;;;;;;;10.77;4.68;;;16.20;99.90;;;;;;5091477;28;20028;-70
2021/05/17 00:30:19;;;;;;;9.05;4.57;;;16.20;99.90;;;;;;5091914;28;20072;-70
2021/05/17 00:32:45;;;;;;;8.05;4.88;;;16.20;99.90;;;;;;5091831;28;20444;-71
2021/05/17 00:35:13;;;;;;;10.45;4.72;;;16.20;99.90;;;;;;5093133;28;20024;-70
2021/05/17 00:37:40;;;;;;;6.30;4.40;;;16.10;99.90;;;;;;5091779;28;20024;-71
2021/05/17 00:40:07;;;;;;;6.38;4.13;;;16.20;99.90;;;;;;5093458;28;20024;-71
2021/05/17 00:42:35;;;;;;;5.03;3.90;;;16.10;99.90;;;;;;5093071;28;20027;-69
2021/05/17 00:45:02;;;;;;;8.95;4.68;;;16.10;99.90;;;;;;5093086;28;20028;-70
2021/05/17 00:47:31;;;;;;;8.23;4.25;;;16.10;99.90;;;;;;5093048;28;20043;-70
2021/05/17 00:49:58;;;;;;;6.15;4.93;;;16.10;99.90;;;;;;5093087;28;20394;-71
2021/05/17 00:52:24;;;;;;;7.93;5.25;;;16.10;99.90;;;;;;5091708;28;20082;-71
2021/05/17 00:54:50;;;;;;;9.82;5.55;;;16.10;99.90;;;;;;5091473;28;20039;-70
2021/05/17 00:57:19;;;;;;;10.32;4.45;;;16.10;99.90;;;;;;5091675;28;20032;-70
2021/05/17 00:59:46;;;;;;;7.25;4.70;;;16.10;99.90;;;;;;5093013;28;20153;-70
2021/05/17 01:02:11;;;;;;;7.25;4.65;;;16.10;99.90;;;;;;5092897;28;20024;-70
2021/05/17 01:04:37;;;;;;;4.60;3.58;;;16.10;99.90;;;;;;5092952;28;20371;-72
2021/05/17 01:07:04;;;;;;;4.20;3.80;;;16.10;99.90;;;;;;5092907;28;20464;-70
2021/05/17 01:09:34;;;;;;;4.82;3.55;;;16.10;99.90;;;;;;5092894;28;20038;-71
2021/05/17 01:12:00;;;;;;;9.40;3.58;;;16.10;99.90;;;;;;5092804;28;20383;-71
2021/05/17 01:14:26;;;;;;;5.18;4.03;;;16.10;99.90;;;;;;5091466;28;20437;-71
2021/05/17 01:16:55;;;;;;;9.55;3.33;;;16.10;99.90;;;;;;5092819;28;20024;-71
2021/05/17 01:19:51;;;;;;;3.40;3.10;;;16.10;99.90;;;;;;5092789;28;20028;-71
2021/05/17 01:22:23;;;;;;;4.88;3.15;;;16.10;99.90;;;;;;5092879;28;20035;-72
2021/05/17 01:24:49;;;;;;;3.78;3.03;;;16.10;99.90;;;;;;5092759;28;20028;-72
2021/05/17 01:27:15;;;;;;;7.80;3.88;;;16.10;99.90;;;;;;5091404;28;20020;-72
2021/05/17 01:29:42;;;;;;;5.22;3.45;;;16.10;99.90;;;;;;5092976;28;20031;-71
2021/05/17 01:32:10;;;;;;;6.00;3.60;;;16.20;99.90;;;;;;5091338;28;20032;-72
2021/05/17 01:34:39;;;;;;;7.03;3.38;;;16.20;99.90;;;;;;5092619;28;20028;-72
2021/05/17 01:37:08;;;;;;;5.22;3.47;;;16.20;99.90;;;;;;5091306;28;20448;-72
2021/05/17 01:39:36;;;;;;;3.60;3.30;;;16.20;99.90;;;;;;5093023;28;20028;-71
2021/05/17 01:42:02;;;;;;;3.75;2.92;;;16.20;99.90;;;;;;5094945;28;20024;-70
2021/05/17 01:44:29;;;;;;;5.07;3.05;;;16.20;99.90;;;;;;5096152;28;20452;-70
2021/05/17 01:46:59;;;;;;;4.00;3.10;;;16.20;99.90;;;;;;5096115;28;20031;-71
2021/05/17 01:49:26;;;;;;;3.72;2.78;;;16.20;99.90;;;;;;5094793;28;20479;-71
2021/05/17 01:51:53;;;;;;;3.92;3.00;;;16.20;99.90;;;;;;5094680;28;20023;-71
2021/05/17 01:54:19;;;;;;;3.08;2.60;;;16.20;99.90;;;;;;5094706;28;20118;-70
2021/05/17 01:56:45;;;;;;;4.47;2.72;;;16.20;99.90;;;;;;5096257;28;20356;-70
2021/05/17 01:59:11;;;;;;;4.30;2.58;;;16.20;99.90;;;;;;5094570;28;20024;-71
2021/05/17 02:01:38;;;;;;;4.05;3.08;;;16.20;99.90;;;;;;5095583;28;20430;-71
2021/05/17 02:04:05;;;;;;;3.10;2.90;;;16.20;99.90;;;;;;5094531;28;20110;-71
2021/05/17 02:06:32;;;;;;;3.42;2.72;;;16.20;99.90;;;;;;5095701;28;20086;-70
2021/05/17 02:08:58;;;;;;;2.95;2.30;;;16.20;99.90;;;;;;5095734;28;20069;-70
2021/05/17 02:11:25;;;;;;;4.00;2.85;;;16.20;99.90;;;;;;5095309;28;20455;-71
2021/05/17 02:13:52;;;;;;;4.28;2.40;;;16.20;99.90;;;;;;5095897;28;20024;-71
2021/05/17 02:16:18;;;;;;;2.60;2.38;;;16.20;99.90;;;;;;5094237;28;20028;-70
2021/05/17 02:18:48;;;;;;;3.30;2.42;;;16.20;99.90;;;;;;5095521;28;20020;-70
2021/05/17 02:21:17;;;;;;;3.00;2.35;;;16.20;99.90;;;;;;5095554;28;20059;-71
2021/05/17 02:23:44;;;;;;;3.67;2.60;;;16.20;99.90;;;;;;5094135;28;20461;-71
2021/05/17 02:26:11;;;;;;;2.58;2.38;;;16.20;99.90;;;;;;5095311;28;20031;-70
2021/05/17 02:28:39;;;;;;;2.33;2.13;;;16.30;99.90;;;;;;5095587;28;20125;-72
2021/05/17 02:31:07;;;;;;;2.92;2.60;;;16.30;99.90;;;;;;5095274;28;20016;-72
2021/05/17 02:33:33;;;;;;;3.80;2.55;;;16.20;99.90;;;;;;5095231;28;20016;-72
2021/05/17 02:36:00;;;;;;;2.50;2.30;;;16.20;99.90;;;;;;5095218;28;20031;-72
2021/05/17 02:38:26;;;;;;;3.80;2.60;;;16.20;99.90;;;;;;5093856;28;20356;-71
2021/05/17 02:40:53;;;;;;;3.83;2.33;;;16.20;99.90;;;;;;5095081;28;20016;-72
2021/05/17 02:43:22;;;;;;;2.72;2.42;;;16.20;99.90;;;;;;5093721;28;20024;-72
2021/05/17 02:45:50;;;;;;;3.42;2.80;;;16.10;99.90;;;;;;5095080;28;20457;-70
2021/05/17 02:48:16;;;;;;;3.20;2.75;;;16.20;99.90;;;;;;5094939;28;20017;-71
2021/05/17 02:50:45;;;;;;;6.22;2.20;;;16.10;99.90;;;;;;5094459;28;20556;-72
2021/05/17 02:53:48;;;;;;;3.08;2.58;;;16.10;99.90;;;;;;5094825;28;20402;-72
2021/05/17 02:56:16;;;;;;;2.88;2.47;;;16.10;99.90;;;;;;5095149;28;20030;-71
2021/05/17 02:58:45;;;;;;;3.20;2.38;;;16.10;99.90;;;;;;5094716;28;20016;-71
2021/05/17 03:01:20;;;;;;;3.53;2.70;;;16.10;99.90;;;;;;5094764;28;20020;-70
2021/05/17 03:03:48;;;;;;;2.75;2.42;;;16.00;99.90;;;;;;5094718;28;20115;-71
2021/05/17 03:06:21;;;;;;;4.82;2.47;;;16.00;99.90;;;;;;5094540;28;20064;-71
2021/05/17 03:09:13;;;;;;;2.53;2.33;;;16.00;99.90;;;;;;5093288;28;20123;-72
2021/05/17 03:11:45;;;;;;;3.95;2.90;;;16.10;99.90;;;;;;5093264;28;20039;-70
2021/05/17 03:14:13;;;;;;;;;;;16.00;99.90;;;;;;5093602;28;20471;-71
2021/05/17 03:16:41;;;;;;;5.20;2.85;;;16.00;99.90;;;;;;5093038;28;20347;-72
2021/05/17 03:19:08;;;;;;;5.82;3.13;;;15.90;99.90;;;;;;5094081;28;20428;-71
2021/05/17 03:21:35;;;;;;;4.35;2.80;;;16.00;99.90;;;;;;5094044;28;20048;-74
2021/05/17 03:24:01;;;;;;;2.92;2.65;;;15.90;99.90;;;;;;5094257;28;20024;-70
2021/05/17 03:26:27;;;;;;;4.35;2.97;;;15.90;99.90;;;;;;5092810;28;20105;-71
2021/05/17 03:28:53;;;;;;;3.30;3.00;;;16.00;99.90;;;;;;5092829;28;20024;-70
2021/05/17 03:31:19;;;;;;;4.88;2.70;;;15.90;99.90;;;;;;5094119;28;20028;-70
2021/05/17 03:33:45;;;;;;;4.30;3.00;;;15.90;99.90;;;;;;5094083;28;20019;-71
2021/05/17 03:36:11;;;;;;;5.53;3.45;;;15.90;99.90;;;;;;5094031;28;20030;-71
2021/05/17 03:38:40;;;;;;;6.07;3.45;;;16.00;99.90;;;;;;5092579;28;20016;-70
2021/05/17 03:41:07;;;;;;;7.88;3.17;;;16.00;99.90;;;;;;5093627;28;20403;-73
2021/05/17 03:43:33;;;;;;;5.28;3.10;;;16.00;99.90;;;;;;5092554;28;20024;-73
2021/05/17 03:45:59;;;;;;;3.67;3.10;;;16.00;99.90;;;;;;5092598;28;20380;-72
2021/05/17 03:48:25;;;;;;;5.35;3.30;;;16.00;99.90;;;;;;5093818;28;20031;-72
2021/05/17 03:50:51;;;;;;;6.55;3.67;;;16.00;99.90;;;;;;5092425;28;20444;-70
2021/05/17 03:53:17;;;;;;;3.42;3.10;;;15.90;99.90;;;;;;5092411;28;20024;-73
2021/05/17 03:55:44;;;;;;;3.90;2.90;;;15.90;99.90;;;;;;5093749;28;20024;-71
2021/05/17 03:58:10;;;;;;;4.72;3.75;;;16.00;99.90;;;;;;5092332;28;20024;-71
2021/05/17 04:00:36;;;;;;;5.65;3.50;;;15.90;99.90;;;;;;5093734;28;20030;-72
2021/05/17 04:03:06;;;;;;;7.50;4.05;;;15.90;99.90;;;;;;5091512;28;20016;-71
2021/05/17 04:13:26;;;;;;;5.03;4.22;;;15.90;99.90;;;;;;5093363;28;20051;-74
2021/05/17 04:15:53;;;;;;;6.70;3.97;;;15.90;99.90;;;;;;5092276;28;20369;-71
2021/05/17 04:18:20;;;;;;;7.25;4.13;;;16.00;99.90;;;;;;5091982;28;20034;-72
2021/05/17 04:20:47;;;;;;;4.35;3.85;;;15.90;99.90;;;;;;5091968;28;20100;-72
2021/05/17 04:23:14;;;;;;;5.75;3.92;;;15.90;99.90;;;;;;5093257;28;20028;-72
2021/05/17 04:25:40;;;;;;;4.75;3.83;;;15.90;99.90;;;;;;5093276;28;20028;-71
2021/05/17 04:28:06;;;;;;;6.68;4.38;;;15.80;99.90;;;;;;5093272;28;20024;-73
2021/05/17 04:30:32;;;;;;;7.13;5.35;;;15.90;99.90;;;;;;5091921;28;20540;-69
2021/05/17 04:32:59;;;;;;;4.75;4.30;;;15.90;99.90;;;;;;5093160;28;20027;-71
2021/05/17 04:35:24;;;;;;;4.75;4.30;;;15.90;99.90;;;;;;5091914;28;20023;-71
2021/05/17 04:37:50;;;;;;;8.00;5.20;;;15.90;99.90;;;;;;5091892;28;20455;-70
2021/05/17 04:40:16;;;;;;;5.72;4.80;;;15.80;99.90;;;;;;5093190;28;20437;-74
2021/05/17 04:42:43;;;;;;;7.85;4.63;;;15.80;99.90;;;;;;5093111;28;20027;-72
2021/05/17 04:45:10;;;;;;;8.40;5.97;;;15.90;99.90;;;;;;5093036;28;20032;-73
2021/05/17 04:47:36;;;;;;;8.32;4.85;;;15.90;99.90;;;;;;5093111;28;20069;-73
2021/05/17 04:50:05;;;;;;;8.23;5.20;;;15.90;99.90;;;;;;5091442;28;20032;-73
2021/05/17 04:52:30;;;;;;;4.65;4.25;;;15.90;99.90;;;;;;5092987;28;20028;-73
2021/05/17 04:54:56;;;;;;;7.30;5.00;;;15.90;99.90;;;;;;5093048;28;20024;-73
2021/05/17 04:57:22;;;;;;;7.18;5.00;;;15.90;99.90;;;;;;5091694;28;20031;-71
2021/05/17 04:59:48;;;;;;;6.72;4.28;;;15.90;99.90;;;;;;5092968;28;20035;-70
2021/05/17 05:02:14;;;;;;;5.93;4.50;;;15.90;99.90;;;;;;5092997;28;20746;-70
2021/05/17 05:04:40;;;;;;;5.22;4.40;;;15.90;99.90;;;;;;5092451;28;20043;-70
2021/05/17 05:07:07;;;;;;;6.43;4.22;;;16.00;99.90;;;;;;5091469;28;20077;-71
2021/05/17 05:09:33;;;;;;;8.32;5.35;;;16.00;99.90;;;;;;5091480;28;20071;-70
2021/05/17 05:11:59;;;;;;;7.07;5.22;;;15.90;99.90;;;;;;5091117;28;20048;-70
2021/05/17 05:14:26;;;;;;;6.55;5.40;;;16.00;99.90;;;;;;5094471;28;20349;-69
2021/05/17 05:16:52;;;;;;;9.38;5.78;;;15.90;99.90;;;;;;5096568;28;20027;-71
2021/05/17 05:19:17;;;;;;;6.68;5.22;;;15.90;99.90;;;;;;5095186;28;20365;-70
2021/05/17 05:21:43;;;;;;;6.47;5.38;;;15.90;99.90;;;;;;5096540;28;20020;-71
2021/05/17 05:24:10;;;;;;;7.95;5.13;;;15.90;99.90;;;;;;5095241;28;20051;-71
2021/05/17 05:31:58;;;;;;;6.32;5.43;;;15.90;99.90;;;;;;5096291;28;20082;-70
2021/05/17 05:34:25;;;;;;;;;;;15.80;99.90;;;;;;5095342;28;20529;-70
2021/05/17 05:36:51;;;;;;;8.30;5.60;;;15.80;99.90;;;;;;5096001;28;19982;-71
2021/05/17 05:39:17;;;;;;;10.35;6.50;;;15.70;99.90;;;;;;5096025;28;20103;-72
2021/05/17 05:41:43;;;;;;;8.68;5.97;;;15.60;99.90;;;;;;5094793;28;20055;-71
2021/05/17 05:44:09;;;;;;;11.93;6.40;;;15.60;99.90;;;;;;5095781;28;20027;-71
2021/05/17 05:46:35;;;;;;;8.07;6.15;;;15.60;99.90;;;;;;5095998;28;20080;-70
2021/05/17 05:49:01;;;;;;;10.43;6.22;;;15.70;99.90;;;;;;5096132;28;20039;-71
2021/05/17 05:51:29;;;;;;;11.05;6.70;;;15.70;99.90;;;;;;5095803;28;20016;-71
2021/05/17 05:53:57;;;;;;;14.38;6.40;;;15.80;99.90;;;;;;5095884;28;20024;-70
2021/05/17 05:56:23;;;;;;;8.38;6.47;;;15.80;99.90;;;;;;5094494;28;20024;-70
2021/05/17 05:58:49;;;;;;;9.73;6.80;;;15.90;99.90;;;;;;5095752;28;20039;-71
2021/05/17 06:01:16;;;;;;;7.55;5.97;;;15.90;99.90;;;;;;5094467;28;20024;-72
2021/05/17 06:03:42;;;;;;;8.27;6.82;;;15.90;99.90;;;;;;5094344;28;20020;-72
2021/05/17 06:06:08;;;;;;;6.50;5.43;;;16.00;99.90;;;;;;5095548;28;20032;-71
2021/05/17 06:08:43;;;;;;;10.30;5.90;;;16.00;99.90;;;;;;5094068;28;20504;-72
2021/05/17 06:11:11;;;;;;;8.70;7.90;;;15.90;99.90;;;;;;5093657;28;20046;-73
2021/05/17 06:13:39;;;;;;;10.45;9.40;;;15.90;99.90;;;;;;5094436;28;20380;-71
2021/05/17 06:16:09;;;;;;;7.40;4.80;;;15.90;99.90;;;;;;5093592;28;20345;-70
2021/05/17 06:18:35;;;;;;;9.38;4.93;;;15.90;99.90;;;;;;5095552;28;20069;-71
2021/05/17 06:21:02;;;;;;;6.10;5.60;;;15.90;99.90;;;;;;5095152;28;20376;-71
2021/05/17 06:23:28;;;;;;;6.40;4.72;;;15.80;99.90;;;;;;5094270;28;20346;-71
2021/05/17 06:25:56;;;;;;;6.68;5.70;;;15.80;99.90;;;;;;5095310;28;20081;-70
2021/05/17 06:28:24;;;;;;;6.10;5.38;;;15.80;99.90;;;;;;5095678;28;20024;-71
2021/05/17 06:30:59;;;;;;;4.95;4.45;;;15.80;99.90;;;;;;5094353;28;20031;-71
2021/05/17 06:33:26;;;;;;;6.25;4.93;;;15.80;99.90;;;;;;5094475;28;20020;-71
2021/05/17 06:35:57;;;;;;;6.35;5.00;;;15.80;99.90;;;;;;5095568;28;20076;-72
2021/05/17 06:38:25;;;;;;;7.93;4.47;;;15.80;99.90;;;;;;5095225;28;20053;-72
2021/05/17 06:40:53;;;;;;;7.80;4.65;;;15.90;99.90;;;;;;5095013;28;20052;-71
2021/05/17 06:43:19;;;;;;;7.93;5.22;;;15.90;99.90;;;;;;5094953;28;20057;-71
2021/05/17 06:45:45;;;;;;;8.48;5.18;;;15.90;99.90;;;;;;5094635;28;20032;-71
2021/05/17 06:48:12;;;;;;;8.20;5.30;;;16.00;99.90;;;;;;5093563;28;20444;-72
2021/05/17 06:50:39;;;;;;;7.88;5.32;;;16.00;99.90;;;;;;5093850;28;20521;-72
2021/05/17 06:53:05;;;;;;;6.18;5.05;;;16.00;99.90;;;;;;5091403;28;20111;-72
2021/05/17 07:00:39;;;;;;;10.60;6.13;;;16.40;99.90;;;;;;5094667;28;20016;-72
2021/05/17 07:03:07;;;;;;;9.57;6.72;;;16.50;99.90;;;;;;5092140;28;20031;-71
2021/05/17 07:05:40;;;;;;;7.85;5.70;;;16.50;99.90;;;;;;5093896;28;20027;-72
2021/05/17 07:13:19;;;;;;;9.15;6.35;;;16.40;99.90;;;;;;5093934;28;20139;-69
2021/05/17 07:15:46;;;;;;;9.75;6.70;;;16.40;99.90;;;;;;5093032;28;20032;-70
2021/05/17 07:18:12;;;;;;;10.75;6.60;;;16.40;99.90;;;;;;5094291;28;20020;-69
2021/05/17 07:25:57;;;;;;;10.98;6.93;;;16.50;99.90;;;;;;5093972;28;20050;-70
2021/05/17 07:28:22;;;;;;;13.40;8.27;;;16.40;99.90;;;;;;5094039;28;20026;-69
2021/05/17 07:30:49;;;;;;;16.38;8.43;;;16.50;99.90;;;;;;5093705;28;20091;-70
2021/05/17 07:33:15;;;;;;;9.23;7.95;;;16.40;99.90;;;;;;5091759;28;20024;-70
2021/05/17 07:35:42;;;;;;;9.20;7.45;;;16.40;99.90;;;;;;5092556;28;20418;-69
2021/05/17 07:38:08;;;;;;;12.38;7.15;;;16.40;99.90;;;;;;5094148;28;20024;-71
2021/05/17 07:40:35;;;;;;;9.00;7.75;;;16.40;99.90;;;;;;5093682;28;20020;-67
2021/05/17 07:43:01;;;;;;;11.88;8.68;;;16.30;99.90;;;;;;5093800;28;20024;-70
2021/05/17 07:45:27;;;;;;;12.95;8.15;;;16.30;99.90;;;;;;5092372;28;20169;-68
2021/05/17 07:47:53;;;;;;;9.60;6.22;;;16.30;99.90;;;;;;5093840;28;20129;-70
2021/05/17 07:50:19;;;;;;;12.63;6.15;;;16.30;99.90;;;;;;5092405;28;20069;-70
2021/05/17 07:52:45;;;;;;;7.07;5.60;;;16.40;99.90;;;;;;5092227;28;20111;-68
2021/05/17 07:55:12;;;;;;;10.65;5.53;;;16.30;99.90;;;;;;5093930;28;20174;-71
2021/05/17 07:57:38;;;;;;;6.30;4.90;;;16.30;99.90;;;;;;5092374;28;20020;-69
2021/05/17 08:00:07;;;;;;;6.05;4.75;;;16.40;99.90;;;;;;5093587;28;20349;-70
2021/05/17 08:02:33;;;;;;;7.57;5.82;;;16.50;99.90;;;;;;5093360;28;20051;-68
2021/05/17 08:04:59;;;;;;;9.45;6.82;;;16.60;99.90;;;;;;5091885;28;20028;-69
2021/05/17 08:07:25;;;;;;;10.32;6.97;;;16.70;99.90;;;;;;5093394;28;20024;-70
2021/05/17 08:09:52;;;;;;;8.93;7.40;;;17.10;99.90;;;;;;5091998;28;20020;-68
2021/05/17 08:12:20;;;;;;;11.27;7.35;;;17.20;99.90;;;;;;5090825;28;20044;-68
2021/05/17 08:14:46;;;;;;;9.77;7.25;;;17.40;99.90;;;;;;5093335;28;20104;-71
2021/05/17 08:17:13;;;;;;;10.93;7.28;;;17.80;99.90;;;;;;5092912;28;20484;-70
2021/05/17 08:19:39;;;;;;;6.32;5.38;;;18.30;99.90;;;;;;5092501;28;20035;-68
2021/05/17 08:22:05;;;;;;;8.63;4.82;;;18.40;99.90;;;;;;5093097;28;20502;-70
2021/05/17 08:24:31;;;;;;;6.20;4.80;;;18.80;99.90;;;;;;5092994;28;20038;-71
2021/05/17 08:26:57;;;;;;;5.10;4.32;;;19.00;99.90;;;;;;5091806;28;20107;-71
2021/05/17 08:29:24;;;;;;;7.20;5.18;;;;;;;;;;5093300;28;20032;-71
2021/05/17 08:31:51;;;;;;;9.07;5.57;;;19.80;99.90;;;;;;5092820;28;20432;-70
2021/05/17 08:34:18;;;;;;;5.53;4.65;;;19.80;99.90;;;;;;5092864;28;20048;-72
2021/05/17 08:36:44;;;;;;;11.05;4.93;;;19.90;99.90;;;;;;5092085;28;20024;-72
2021/05/17 08:39:11;;;;;;;4.88;4.32;;;19.80;99.90;;;;;;5091759;28;20119;-71
2021/05/17 08:41:38;;;;;;;5.55;3.67;;;19.50;99.90;;;;;;5093100;28;20024;-72
2021/05/17 08:44:05;;;;;;;5.57;3.53;;;19.30;99.90;;;;;;5092994;28;20364;-73
2021/05/17 08:46:32;;;;;;;3.47;3.08;;;19.20;99.90;;;;;;5091669;28;20020;-73
2021/05/17 08:48:58;;;;;;;3.92;3.40;;;19.20;99.90;;;;;;5092838;28;20036;-72
2021/05/17 08:51:25;;;;;;;4.10;3.47;;;19.00;99.90;;;;;;5097509;28;20024;-72
2021/05/17 08:53:53;;;;;;;4.93;3.92;;;19.00;99.90;;;;;;5097133;28;20031;-72
2021/05/17 08:56:20;;;;;;;5.60;3.83;;;19.10;99.90;;;;;;5097075;28;20024;-71
2021/05/17 08:58:47;;;;;;;4.13;3.60;;;19.00;99.90;;;;;;5096544;28;20091;-70
2021/05/17 09:01:13;;;;;;;6.07;3.75;;;19.10;99.90;;;;;;5097031;28;20486;-71
2021/05/17 09:03:39;;;;;;;4.10;2.95;;;19.10;99.90;;;;;;5096942;28;20028;-70
2021/05/17 09:06:09;;;;;;;6.05;3.20;;;19.00;99.90;;;;;;5095238;28;20024;-69
2021/05/17 09:08:42;;;;;;;3.47;2.53;;;18.80;99.90;;;;;;5096891;28;20051;-71
2021/05/17 09:11:09;;;;;;;4.95;3.38;;;18.70;99.90;;;;;;5095398;28;20024;-71
2021/05/17 09:13:35;;;;;;;3.83;3.42;;;18.60;99.90;;;;;;5096649;28;20044;-71
2021/05/17 09:16:02;;;;;;;4.43;3.05;;;18.50;99.90;;;;;;5095405;28;20046;-72
2021/05/17 09:18:31;;;;;;;4.88;3.08;;;18.30;99.90;;;;;;5095384;28;20020;-73
2021/05/17 09:21:05;;;;;;;6.57;3.55;;;18.20;99.90;;;;;;5095350;28;20111;-71
2021/05/17 09:23:33;;;;;;;6.22;3.42;;;17.90;99.90;;;;;;5096617;28;20024;-72
2021/05/17 09:26:16;;;;;;;4.07;3.67;;;18.00;99.90;;;;;;5096329;28;20023;-71
2021/05/17 09:28:47;;;;;;;3.33;3.03;;;18.40;99.90;;;;;;5093123;28;20066;-72
2021/05/17 09:31:17;;;;;;;3.42;3.13;;;18.90;99.90;;;;;;5094772;28;20025;-71
2021/05/17 09:33:47;;;;;;;4.90;4.40;;;19.20;99.90;;;;;;5096041;28;20115;-71
2021/05/17 09:36:36;;;;;;;3.33;3.00;;;19.20;99.90;;;;;;5096055;28;20075;-72
2021/05/17 09:39:09;;;;;;;3.60;3.22;;;19.10;99.90;;;;;;5095889;28;20073;-73
2021/05/17 09:41:50;;;;;;;3.80;3.45;;;18.80;99.90;;;;;;5095561;28;20077;-72
2021/05/17 09:44:21;;;;;;;4.77;3.10;;;18.60;99.90;;;;;;5094849;28;20028;-70
2021/05/17 09:47:13;;;;;;;3.60;3.00;;;18.40;99.90;;;;;;5096201;28;20291;-72
2021/05/17 09:49:42;;;;;;;4.60;3.13;;;18.20;99.90;;;;;;5096087;28;20070;-73
2021/05/17 09:52:14;;;;;;;4.25;2.90;;;18.10;99.90;;;;;;5095737;28;20027;-72
2021/05/17 09:54:46;;;;;;;5.80;3.35;;;18.20;99.90;;;;;;5096006;28;20452;-72
2021/05/17 09:57:16;;;;;;;6.28;3.65;;;18.50;99.90;;;;;;5094650;28;20428;-73
2021/05/17 09:59:46;;;;;;;4.07;3.25;;;18.90;99.90;;;;;;5095547;28;20531;-72
2021/05/17 10:02:28;;;;;;;3.85;3.10;;;18.90;99.90;;;;;;5093692;28;20058;-74
2021/05/17 10:05:08;;;;;;;5.13;2.97;;;19.00;99.90;;;;;;5095662;28;20024;-70
2021/05/17 10:07:34;;;;;;;4.00;3.70;;;19.00;99.90;;;;;;5093601;28;20035;-70
2021/05/17 10:10:00;;;;;;;7.68;3.88;;;18.90;99.90;;;;;;5095222;28;20028;-70
2021/05/17 10:12:27;;;;;;;4.97;3.70;;;18.90;99.90;;;;;;5093830;28;20044;-73
2021/05/17 10:14:53;;;;;;;3.97;3.58;;;18.80;99.90;;;;;;5094239;28;20031;-71
2021/05/17 10:17:20;;;;;;;7.35;3.90;;;18.80;99.90;;;;;;5095552;28;20212;-71
2021/05/17 10:19:46;;;;;;;3.42;3.13;;;18.80;99.90;;;;;;5094171;28;20016;-72
2021/05/17 10:22:12;;;;;;;3.42;3.13;;;18.70;99.90;;;;;;5095440;28;20012;-71
2021/05/17 10:24:38;;;;;;;4.55;3.00;;;18.70;99.90;;;;;;5093986;28;20409;-71
2021/05/17 10:27:04;;;;;;;4.50;3.72;;;19.00;99.90;;;;;;5095031;28;20063;-71
2021/05/17 10:29:34;;;;;;;2.67;2.45;;;19.50;99.90;;;;;;5092419;28;20406;-70
2021/05/17 10:32:02;;;;;;;6.95;2.72;;;19.60;99.90;;;;;;5095267;28;20028;-71
2021/05/17 10:34:29;;;;;;;4.70;3.33;;;;;;;;;;5095389;28;20048;-70
2021/05/17 10:36:58;;;;;;;5.95;3.72;;;20.00;99.90;;;;;;5093766;28;20012;-69
2021/05/17 10:39:40;;;;;;;5.82;3.88;;;20.10;99.90;;;;;;5095206;28;20027;-70
2021/05/17 10:48:12;;;;;;;4.65;3.30;;;19.70;99.90;;;;;;5012360;28;20080;-70
2021/05/17 10:50:40;;;;;;;5.95;3.35;;;19.40;99.90;;;;;;5012671;28;20030;-69
2021/05/17 10:53:06;;;;;;;7.40;3.45;;;19.20;99.90;;;;;;5012442;28;20475;-68
2021/05/17 10:55:34;;;;;;;6.10;3.72;;;19.10;99.90;;;;;;5012185;28;20465;-70
2021/05/17 11:00:35;;;;;;;5.88;3.40;;;19.10;99.90;;;;;;5012237;28;20026;-73
2021/05/17 11:03:21;;;;;;;3.88;3.10;;;19.20;99.90;;;;;;4995764;28;20021;-70
2021/05/17 11:05:48;;;;;;;4.03;3.15;;;19.20;99.90;;;;;;4995751;28;20037;-69
2021/05/17 11:08:17;;;;;;;3.67;2.95;;;19.10;99.90;;;;;;4995761;28;20045;-72
2021/05/17 11:10:44;;;;;;;4.15;3.47;;;19.00;99.90;;;;;;5011982;28;20121;-71
2021/05/17 11:13:13;;;;;;;3.90;3.50;;;19.20;99.90;;;;;;5011442;28;20046;-69
2021/05/17 11:15:41;;;;;;;6.25;3.80;;;19.40;99.90;;;;;;5011878;28;20042;-69
2021/05/17 11:18:06;;;;;;;4.32;3.75;;;19.90;99.90;;;;;;5011986;28;20116;-71
2021/05/17 11:20:39;;;;;;;6.97;4.00;;;20.30;99.90;;;;;;4995377;28;20120;-71
2021/05/17 11:23:06;;;;;;;3.13;2.80;;;20.50;99.90;;;;;;5021391;28;20036;-72
2021/05/17 11:26:04;;;;;;;5.95;3.10;;;20.50;99.90;;;;;;5092776;28;20096;-73
2021/05/17 11:31:12;;;;;;;4.93;3.30;;;21.70;99.90;;;;;;5094390;28;20035;-69
2021/05/17 11:33:57;;;;;;;2.45;2.13;;;23.00;99.90;;;;;;5093981;28;20019;-69
2021/05/17 11:36:26;;;;;;;3.00;2.63;;;25.00;99.90;;;;;;5094104;28;20065;-69
2021/05/17 11:39:27;;;;;;;3.53;2.80;;;24.70;99.90;;;;;;5093154;28;20445;-71
2021/05/17 11:41:53;;;;;;;3.45;2.22;;;25.90;99.90;;;;;;5091933;28;20134;-71
2021/05/17 11:44:28;;;;;;;3.80;2.17;;;26.40;99.50;;;;;;5093719;28;20142;-71
2021/05/17 11:46:56;;;;;;;2.88;2.58;;;26.70;96.50;;;;;;5092179;28;20085;-72
2021/05/17 11:49:24;;;;;;;2.72;2.50;;;28.80;94.00;;;;;;5093754;28;20024;-71
2021/05/17 11:51:55;;;;;;;2.67;1.90;;;28.90;91.10;;;;;;5093348;28;20545;-70
2021/05/17 11:54:23;;;;;;;2.28;1.92;;;29.00;91.30;;;;;;5093193;28;20012;-72
2021/05/17 11:57:00;;;;;;;3.35;1.77;;;28.50;91.40;;;;;;5093376;28;20390;-68
2021/05/17 11:59:28;;;;;;;3.05;1.70;;;27.00;92.30;;;;;;5093519;28;20522;-69
2021/05/17 12:01:56;;;;;;;2.00;1.23;;;25.50;96.80;;;;;;5092040;28;20118;-72
2021/05/17 12:04:28;;;;;;;1.05;0.90;;;;;;;;;;5093384;28;20027;-71
2021/05/17 12:06:56;;;;;;;1.27;1.17;;;;;;;;;;5093225;28;20035;-70
2021/05/17 12:09:45;;;;;;;0.95;0.95;;;;;;;;;;5093214;28;20027;-71
2021/05/17 12:12:14;;;;;;;0.68;0.68;;;;;;;;;;5084836;28;20046;-71
2021/05/17 12:14:42;;;;;;;1.05;0.90;;;;;;;;;;5091560;28;20034;-70
2021/05/17 12:17:26;;;;;;;3.13;0.93;;;;;;;;;;5091841;28;20024;-70
2021/05/17 12:19:56;;;;;;;0.88;0.80;;;;;;;;;;5091811;28;20521;-73
2021/05/17 12:22:23;;;;;;;1.02;1.02;;;;;;;;;;5091953;28;20065;-72
2021/05/17 12:24:51;;;;;;;5.15;2.08;;;;;;;;;;5091073;28;20504;-70
2021/05/17 12:27:18;;;;;;;2.22;1.70;;;;;;;;;;5091786;28;20035;-71
2021/05/17 12:29:57;;;;;;;1.52;1.38;;;21.50;99.90;;;;;;5091004;28;20073;-71
2021/05/17 12:33:04;;;;;;;1.40;1.30;;;21.20;99.90;;;;;;5089126;28;20027;-72
2021/05/17 12:35:33;;;;;;;1.15;1.10;;;20.90;99.90;;;;;;5010324;28;20050;-70
2021/05/17 12:38:18;;;;;;;1.23;1.23;;;20.80;99.90;;;;;;5010751;28;20084;-69
2021/05/17 12:40:45;;;;;;;1.30;1.30;;;20.30;99.90;;;;;;5010584;28;20486;-69
2021/05/17 12:43:34;;;;;;;1.90;1.60;;;19.90;99.90;;;;;;5010649;28;20030;-71
2021/05/17 12:46:02;;;;;;;3.97;2.30;;;19.30;99.90;;;;;;5010628;28;20038;-72
2021/05/17 12:48:44;;;;;;;5.25;2.30;;;19.00;99.90;;;;;;5010532;28;20029;-71
2021/05/17 12:51:19;;;;;;;4.60;2.90;;;18.50;99.90;;;;;;4994187;28;20033;-72
2021/05/17 12:53:49;;;;;;;3.75;2.78;;;18.20;99.90;;;;;;5010692;28;20045;-69
2021/05/17 12:56:35;;;;;;;6.63;2.80;;;18.00;99.90;;;;;;4993636;28;20029;-69
2021/05/17 12:59:10;;;;;;;4.22;2.15;;;17.90;99.90;;;;;;4993901;28;20026;-68
2021/05/17 13:01:37;;;;;;;3.65;2.33;;;17.80;99.90;;;;;;5009917;28;20021;-68
2021/05/17 13:04:04;;;;;;;5.07;2.33;;;17.60;99.90;;;;;;5010211;28;20160;-69
2021/05/17 13:06:31;;;;;;;2.00;1.45;;;17.70;99.90;;;;;;4993898;28;20518;-70
2021/05/17 13:09:04;;;;;;;2.53;1.73;;;17.60;99.90;;;;;;4993837;28;20026;-71
2021/05/17 13:11:40;;;;;;;4.55;1.48;;;17.70;99.90;;;;;;5037368;28;20657;-71
2021/05/17 13:14:07;;;;;;;1.80;1.42;;;17.70;99.90;;;;;;5092754;28;20043;-69
2021/05/17 13:16:37;;;;;;;2.08;1.88;;;17.80;99.90;;;;;;5092687;28;20035;-69
2021/05/17 13:30:55;;;;;;;4.20;1.20;;;26.80;92.30;;;;;;5086466;28;20113;-69
2021/05/17 13:33:25;;;;;;;1.98;1.00;;;23.50;96.50;;;;;;5092603;28;20024;-70
2021/05/17 13:35:56;;;;;;;0.82;0.60;;;23.20;97.60;;;;;;5094752;28;20056;-68
2021/05/17 13:38:23;;;;;;;0.55;0.55;;;;;;;;;;5094935;28;20024;-69
2021/05/17 13:40:49;;;;;;;0.65;0.50;;;20.00;99.70;;;;;;5095987;28;20060;-71
2021/05/17 13:43:15;;;;;;;0.60;0.60;;;19.70;99.90;;;;;;5096217;28;20103;-71
2021/05/17 13:45:41;;;;;;;1.42;0.60;;;19.70;99.90;;;;;;5094725;28;20138;-70
2021/05/17 13:48:07;;;;;;;0.57;0.57;;;19.30;99.90;;;;;;5096367;28;20031;-71
2021/05/17 13:50:33;;;;;;;1.67;0.50;;;;;;;;;;5096078;28;20016;-72